createdAt,value
2022-10-11T00:00:47.262Z,9.681123
2022-10-11T00:01:47.274Z,9.681298
2022-10-11T00:02:47.180Z,9.681220
2022-10-11T00:03:47.181Z,9.680824
2022-10-11T00:04:47.193Z,9.681047
2022-10-11T00:05:47.160Z,9.680729
2022-10-11T00:06:47.151Z,9.680893
2022-10-11T00:07:47.139Z,9.680754
2022-10-11T00:08:47.153Z,9.680569
2022-10-11T00:09:47.147Z,9.680759
2022-10-11T00:10:47.117Z,9.680634
2022-10-11T00:11:47.110Z,9.680880
2022-10-11T00:12:47.116Z,9.681155
2022-10-11T00:13:47.102Z,9.681293
2022-10-11T00:14:47.102Z,9.681482
2022-10-11T00:15:47.109Z,9.681266
2022-10-11T00:16:47.073Z,9.681020
2022-10-11T00:17:47.063Z,9.680933
2022-10-11T00:18:47.068Z,9.680768
2022-10-11T00:19:47.062Z,9.680768
2022-10-11T00:20:47.068Z,9.680862
2022-10-11T00:21:47.041Z,9.681165
2022-10-11T00:22:47.033Z,9.681110
2022-10-11T00:23:47.025Z,9.681192
2022-10-11T00:24:47.012Z,9.681850
2022-10-11T00:25:47.008Z,9.681378
2022-10-11T00:26:47.229Z,9.681526
2022-10-11T00:27:46.993Z,9.681435
2022-10-11T00:28:47.025Z,9.681479
2022-10-11T00:29:46.979Z,9.681286
2022-10-11T00:30:46.975Z,9.681334
2022-10-11T00:31:46.980Z,9.681274
2022-10-11T00:32:46.959Z,9.681393
2022-10-11T00:33:46.968Z,9.681298
2022-10-11T00:34:46.948Z,9.681294
2022-10-11T00:35:46.937Z,9.681091
2022-10-11T00:36:46.941Z,9.681474
2022-10-11T00:37:46.924Z,9.681468
2022-10-11T00:38:46.911Z,9.681178
2022-10-11T00:39:46.919Z,9.681164
2022-10-11T00:40:46.903Z,9.681092
2022-10-11T00:41:46.893Z,9.680939
2022-10-11T00:42:46.882Z,9.681039
2022-10-11T00:43:46.893Z,9.681087
2022-10-11T00:44:46.873Z,9.681224
2022-10-11T00:45:46.861Z,9.681186
2022-10-11T00:46:46.851Z,9.681074
2022-10-11T00:47:46.857Z,9.680984
2022-10-11T00:48:46.867Z,9.680545
2022-10-11T00:49:46.833Z,9.680970
2022-10-11T00:50:46.828Z,9.680868
2022-10-11T00:51:46.817Z,9.680989
2022-10-11T00:52:46.811Z,9.680874
2022-10-11T00:53:46.816Z,9.680699
2022-10-11T00:54:46.797Z,9.680930
2022-10-11T00:55:46.794Z,9.680947
2022-10-11T00:56:46.803Z,9.681506
2022-10-11T00:57:46.781Z,9.681561
2022-10-11T00:58:46.764Z,9.681657
2022-10-11T00:59:46.755Z,9.681560
2022-10-11T01:00:46.754Z,9.681499
2022-10-11T01:01:46.784Z,9.681095
2022-10-11T01:02:46.754Z,9.680885
2022-10-11T01:03:46.731Z,9.680964
2022-10-11T01:04:46.749Z,9.681195
2022-10-11T01:05:46.720Z,9.681263
2022-10-11T01:06:46.724Z,9.680670
2022-10-11T01:07:46.716Z,9.680860
2022-10-11T01:08:46.705Z,9.681005
2022-10-11T01:09:46.682Z,9.680913
2022-10-11T01:10:46.704Z,9.680947
2022-10-11T01:11:46.672Z,9.680056
2022-10-11T01:12:46.678Z,9.680028
2022-10-11T01:13:46.659Z,9.679763
2022-10-11T01:14:46.654Z,9.680645
2022-10-11T01:15:46.736Z,9.680400
2022-10-11T01:16:46.648Z,9.681085
2022-10-11T01:17:46.628Z,9.681059
2022-10-11T01:18:46.622Z,9.681129
2022-10-11T01:19:46.622Z,9.681225
2022-10-11T01:20:46.616Z,9.681315
2022-10-11T01:21:46.625Z,9.681241
2022-10-11T01:22:46.593Z,9.681554
2022-10-11T01:23:46.588Z,9.681450
2022-10-11T01:24:46.596Z,9.681323
2022-10-11T01:25:46.568Z,9.681394
2022-10-11T01:26:46.558Z,9.681290
2022-10-11T01:27:46.548Z,9.681064
2022-10-11T01:28:46.743Z,9.681697
2022-10-11T01:29:46.533Z,9.681138
2022-10-11T01:30:46.536Z,9.681124
2022-10-11T01:31:46.524Z,9.681100
2022-10-11T01:32:46.515Z,9.681044
2022-10-11T01:33:46.530Z,9.681272
2022-10-11T01:34:46.501Z,9.681182
2022-10-11T01:35:46.492Z,9.681062
2022-10-11T01:36:46.484Z,9.681154
2022-10-11T01:37:46.473Z,9.681220
2022-10-11T01:38:46.468Z,9.681563
2022-10-11T01:39:46.475Z,9.681069
2022-10-11T01:40:46.453Z,9.680784
2022-10-11T01:41:46.442Z,9.681115
2022-10-11T01:42:46.444Z,9.681165
2022-10-11T01:43:46.425Z,9.681134
2022-10-11T01:44:46.438Z,9.681164
2022-10-11T01:45:46.417Z,9.680870
2022-10-11T01:46:46.411Z,9.680879
2022-10-11T01:47:46.400Z,9.681124
2022-10-11T01:48:46.398Z,9.681552
2022-10-11T01:49:46.398Z,9.681211
2022-10-11T01:50:46.403Z,9.681168
2022-10-11T01:51:47.488Z,9.681259
2022-10-11T01:52:46.371Z,9.681232
2022-10-11T01:53:46.374Z,9.681110
2022-10-11T01:55:08.161Z,9.681414
2022-10-11T01:55:47.346Z,9.681423
2022-10-11T01:56:46.339Z,9.681531
2022-10-11T01:57:46.325Z,9.681414
2022-10-11T01:58:46.315Z,9.681391
2022-10-11T01:59:46.333Z,9.681097
2022-10-11T02:00:46.313Z,9.681127
2022-10-11T02:01:46.373Z,9.681268
2022-10-11T02:02:46.296Z,9.681184
2022-10-11T02:03:46.301Z,9.681141
2022-10-11T02:04:46.276Z,9.681274
2022-10-11T02:05:46.265Z,9.681263
2022-10-11T02:06:46.260Z,9.681158
2022-10-11T02:07:46.270Z,9.681250
2022-10-11T02:08:46.277Z,9.681265
2022-10-11T02:09:46.252Z,9.681261
2022-10-11T02:10:46.225Z,9.681199
2022-10-11T02:11:46.222Z,9.681299
2022-10-11T02:12:46.225Z,9.681347
2022-10-11T02:13:46.206Z,9.681222
2022-10-11T02:14:46.200Z,9.681266
2022-10-11T02:15:46.207Z,9.680882
2022-10-11T02:16:46.188Z,9.680896
2022-10-11T02:17:46.178Z,9.680750
2022-10-11T02:18:46.172Z,9.681155
2022-10-11T02:19:46.163Z,9.681076
2022-10-11T02:20:46.167Z,9.680902
2022-10-11T02:21:46.142Z,9.681030
2022-10-11T02:22:46.137Z,9.680876
2022-10-11T02:23:46.136Z,9.680824
2022-10-11T02:24:46.156Z,9.681054
2022-10-11T02:25:46.118Z,9.680996
2022-10-11T02:26:46.119Z,9.680923
2022-10-11T02:27:46.126Z,9.680947
2022-10-11T02:28:46.185Z,9.681179
2022-10-11T02:29:46.105Z,9.681091
2022-10-11T02:30:46.090Z,9.681184
2022-10-11T02:31:46.089Z,9.680779
2022-10-11T02:32:46.068Z,9.680794
2022-10-11T02:33:46.055Z,9.680824
2022-10-11T02:34:46.047Z,9.680620
2022-10-11T02:35:46.040Z,9.680756
2022-10-11T02:36:46.029Z,9.681628
2022-10-11T02:37:46.041Z,9.681488
2022-10-11T02:38:46.016Z,9.681267
2022-10-11T02:39:46.013Z,9.680911
2022-10-11T02:40:46.003Z,9.680815
2022-10-11T02:41:45.997Z,9.680984
2022-10-11T02:42:46.006Z,9.681095
2022-10-11T02:43:45.981Z,9.681135
2022-10-11T02:44:45.976Z,9.681126
2022-10-11T02:45:45.989Z,9.681017
2022-10-11T02:46:45.961Z,9.680993
2022-10-11T02:47:45.944Z,9.680749
2022-10-11T02:48:45.965Z,9.680859
2022-10-11T02:49:45.944Z,9.681024
2022-10-11T02:50:45.934Z,9.681050
2022-10-11T02:51:45.931Z,9.681338
2022-10-11T02:52:45.930Z,9.681331
2022-10-11T02:53:45.913Z,9.681363
2022-10-11T02:54:45.930Z,9.681076
2022-10-11T02:55:45.901Z,9.680976
2022-10-11T02:56:45.897Z,9.680955
2022-10-11T02:57:45.888Z,9.681012
2022-10-11T02:58:45.879Z,9.680903
2022-10-11T02:59:45.879Z,9.681042
2022-10-11T03:00:45.888Z,9.681005
2022-10-11T03:01:45.916Z,9.681035
2022-10-11T03:02:45.869Z,9.680831
2022-10-11T03:03:45.855Z,9.680487
2022-10-11T03:04:45.840Z,9.679970
2022-10-11T03:05:45.831Z,9.680410
2022-10-11T03:06:45.847Z,9.680752
2022-10-11T03:07:45.814Z,9.680875
2022-10-11T03:08:45.803Z,9.680687
2022-10-11T03:09:45.806Z,9.680747
2022-10-11T03:10:45.824Z,9.680737
2022-10-11T03:11:45.791Z,9.681038
2022-10-11T03:12:45.790Z,9.681051
2022-10-11T03:13:45.771Z,9.681125
2022-10-11T03:14:45.771Z,9.681114
2022-10-11T03:15:45.783Z,9.680732
2022-10-11T03:16:45.763Z,9.680837
2022-10-11T03:17:45.749Z,9.680872
2022-10-11T03:18:45.740Z,9.680924
2022-10-11T03:19:45.738Z,9.680959
2022-10-11T03:20:45.745Z,9.681107
2022-10-11T03:21:45.722Z,9.681368
2022-10-11T03:22:45.716Z,9.681537
2022-10-11T03:23:45.700Z,9.681080
2022-10-11T03:24:45.703Z,9.680743
2022-10-11T03:25:45.710Z,9.680765
2022-10-11T03:26:45.689Z,9.680765
2022-10-11T03:27:45.677Z,9.681001
2022-10-11T03:28:45.760Z,9.680959
2022-10-11T03:29:45.661Z,9.681038
2022-10-11T03:30:45.682Z,9.680979
2022-10-11T03:31:45.658Z,9.680645
2022-10-11T03:32:45.640Z,9.680444
2022-10-11T03:33:45.632Z,9.680982
2022-10-11T03:34:45.635Z,9.681250
2022-10-11T03:35:45.658Z,9.681067
2022-10-11T03:36:45.613Z,9.680937
2022-10-11T03:37:45.634Z,9.680913
2022-10-11T03:38:45.616Z,9.680986
2022-10-11T03:39:45.596Z,9.681049
2022-10-11T03:40:45.586Z,9.680937
2022-10-11T03:41:45.582Z,9.681041
2022-10-11T03:42:45.597Z,9.680849
2022-10-11T03:43:45.566Z,9.681273
2022-10-11T03:44:45.571Z,9.680988
2022-10-11T03:45:45.575Z,9.681154
2022-10-11T03:46:45.555Z,9.681157
2022-10-11T03:47:45.541Z,9.681180
2022-10-11T03:48:45.538Z,9.681231
2022-10-11T03:49:45.524Z,9.680917
2022-10-11T03:50:45.523Z,9.681009
2022-10-11T03:51:45.529Z,9.681093
2022-10-11T03:52:45.511Z,9.681136
2022-10-11T03:53:45.498Z,9.680950
2022-10-11T03:54:45.490Z,9.680627
2022-10-11T03:55:45.488Z,9.680665
2022-10-11T03:56:45.504Z,9.680815
2022-10-11T03:57:45.499Z,9.680918
2022-10-11T03:58:45.467Z,9.681080
2022-10-11T03:59:45.456Z,9.681117
2022-10-11T04:00:45.461Z,9.681066
2022-10-11T04:01:45.473Z,9.681076
2022-10-11T04:02:45.475Z,9.680778
2022-10-11T04:03:45.457Z,9.680410
2022-10-11T04:04:45.444Z,9.680078
2022-10-11T04:05:45.425Z,9.680350
2022-10-11T04:06:45.419Z,9.680350
2022-10-11T04:07:45.440Z,9.679743
2022-10-11T04:08:45.403Z,9.680903
2022-10-11T04:09:45.391Z,9.680921
2022-10-11T04:10:45.392Z,9.680645
2022-10-11T04:11:45.380Z,9.680676
2022-10-11T04:12:45.376Z,9.680718
2022-10-11T04:13:45.389Z,9.680968
2022-10-11T04:14:45.363Z,9.681020
2022-10-11T04:15:45.354Z,9.680888
2022-10-11T04:16:45.354Z,9.681628
2022-10-11T04:17:45.370Z,9.681232
2022-10-11T04:18:45.345Z,9.680968
2022-10-11T04:19:45.351Z,9.681138
2022-10-11T04:20:45.325Z,9.680958
2022-10-11T04:21:45.319Z,9.681068
2022-10-11T04:22:45.328Z,9.681038
2022-10-11T04:23:45.303Z,9.681252
2022-10-11T04:24:45.298Z,9.681216
2022-10-11T04:25:45.307Z,9.681206
2022-10-11T04:26:45.297Z,9.681026
2022-10-11T04:27:45.284Z,9.681293
2022-10-11T04:28:45.283Z,9.680973
2022-10-11T04:29:45.262Z,9.681036
2022-10-11T04:30:45.256Z,9.681282
2022-10-11T04:31:45.256Z,9.681426
2022-10-11T04:32:45.259Z,9.681314
2022-10-11T04:33:45.235Z,9.681532
2022-10-11T04:34:45.233Z,9.680530
2022-10-11T04:35:45.223Z,9.681332
2022-10-11T04:36:49.625Z,9.680919
2022-10-11T04:37:45.203Z,9.680759
2022-10-11T04:38:45.223Z,9.680924
2022-10-11T04:39:45.195Z,9.680759
2022-10-11T04:40:45.186Z,9.680642
2022-10-11T04:41:45.176Z,9.681089
2022-10-11T04:42:45.201Z,9.680632
2022-10-11T04:43:45.172Z,9.680820
2022-10-11T04:44:45.168Z,9.681189
2022-10-11T04:45:45.158Z,9.681213
2022-10-11T04:46:45.152Z,9.681228
2022-10-11T04:47:45.142Z,9.682130
2022-10-11T04:48:45.163Z,9.681648
2022-10-11T04:49:45.144Z,9.681367
2022-10-11T04:50:45.146Z,9.681511
2022-10-11T04:51:45.133Z,9.681508
2022-10-11T04:52:45.120Z,9.681184
2022-10-11T04:53:45.115Z,9.681019
2022-10-11T04:54:52.298Z,9.680880
2022-10-11T04:55:45.103Z,9.680918
2022-10-11T04:56:45.114Z,9.680946
2022-10-11T04:57:45.088Z,9.680991
2022-10-11T04:58:45.089Z,9.680857
2022-10-11T04:59:49.903Z,9.680842
2022-10-11T05:00:45.087Z,9.680695
2022-10-11T05:01:45.103Z,9.680872
2022-10-11T05:02:45.058Z,9.680663
2022-10-11T05:03:45.054Z,9.681313
2022-10-11T05:04:45.058Z,9.681293
2022-10-11T05:05:45.067Z,9.681518
2022-10-11T05:06:45.048Z,9.681300
2022-10-11T05:07:45.030Z,9.681413
2022-10-11T05:08:45.031Z,9.681223
2022-10-11T05:09:45.022Z,9.680820
2022-10-11T05:10:45.040Z,9.680659
2022-10-11T05:11:45.025Z,9.680730
2022-10-11T05:12:45.005Z,9.680511
2022-10-11T05:13:45.000Z,9.680941
2022-10-11T05:14:44.996Z,9.681002
2022-10-11T05:15:44.989Z,9.681144
2022-10-11T05:16:45.005Z,9.680859
2022-10-11T05:17:44.987Z,9.680934
2022-10-11T05:18:44.966Z,9.680782
2022-10-11T05:19:44.969Z,9.680829
2022-10-11T05:20:44.957Z,9.680408
2022-10-11T05:21:44.991Z,9.680921
2022-10-11T05:22:44.950Z,9.680889
2022-10-11T05:23:44.944Z,9.680851
2022-10-11T05:24:44.944Z,9.681092
2022-10-11T05:25:44.927Z,9.681121
2022-10-11T05:26:44.915Z,9.681193
2022-10-11T05:27:44.930Z,9.680984
2022-10-11T05:28:44.985Z,9.681152
2022-10-11T05:29:44.888Z,9.681155
2022-10-11T05:30:44.894Z,9.680977
2022-10-11T05:31:44.875Z,9.681891
2022-10-11T05:32:44.884Z,9.681368
2022-10-11T05:33:44.887Z,9.681190
2022-10-11T05:34:44.866Z,9.681538
2022-10-11T05:35:44.940Z,9.681826
2022-10-11T05:36:44.858Z,9.681531
2022-10-11T05:37:44.849Z,9.681428
2022-10-11T05:38:44.843Z,9.681125
2022-10-11T05:39:44.844Z,9.681256
2022-10-11T05:40:44.823Z,9.681255
2022-10-11T05:41:44.814Z,9.681207
2022-10-11T05:42:44.834Z,9.681397
2022-10-11T05:43:44.813Z,9.681325
2022-10-11T05:44:44.809Z,9.681431
2022-10-11T05:45:44.812Z,9.681263
2022-10-11T05:46:44.789Z,9.680842
2022-10-11T05:47:44.784Z,9.681324
2022-10-11T05:48:44.797Z,9.680491
2022-10-11T05:49:44.763Z,9.681180
2022-10-11T05:50:44.813Z,9.681411
2022-10-11T05:51:44.762Z,9.681418
2022-10-11T05:52:44.747Z,9.681149
2022-10-11T05:53:44.739Z,9.681167
2022-10-11T05:54:44.732Z,9.681039
2022-10-11T05:55:44.744Z,9.681164
2022-10-11T05:56:44.750Z,9.681005
2022-10-11T05:57:44.709Z,9.681091
2022-10-11T05:58:44.708Z,9.680980
2022-10-11T05:59:44.718Z,9.681266
2022-10-11T06:00:44.705Z,9.681425
2022-10-11T06:01:44.773Z,9.681371
2022-10-11T06:02:44.699Z,9.681567
2022-10-11T06:03:44.679Z,9.680925
2022-10-11T06:04:44.683Z,9.681064
2022-10-11T06:05:44.670Z,9.681402
2022-10-11T06:06:44.657Z,9.681062
2022-10-11T06:07:44.683Z,9.681192
2022-10-11T06:08:44.646Z,9.681509
2022-10-11T06:09:44.666Z,9.681153
2022-10-11T06:10:44.635Z,9.681181
2022-10-11T06:11:44.621Z,9.681232
2022-10-11T06:12:44.627Z,9.681254
2022-10-11T06:13:44.616Z,9.681608
2022-10-11T06:14:44.603Z,9.681349
2022-10-11T06:15:44.622Z,9.681402
2022-10-11T06:16:44.603Z,9.681135
2022-10-11T06:17:44.596Z,9.681079
2022-10-11T06:18:44.587Z,9.681107
2022-10-11T06:19:44.577Z,9.681345
2022-10-11T06:20:44.591Z,9.681137
2022-10-11T06:21:44.572Z,9.680918
2022-10-11T06:22:44.562Z,9.680901
2022-10-11T06:23:44.555Z,9.680871
2022-10-11T06:24:44.587Z,9.681206
2022-10-11T06:25:44.568Z,9.681211
2022-10-11T06:26:44.545Z,9.681677
2022-10-11T06:27:44.538Z,9.681098
2022-10-11T06:28:44.581Z,9.682882
2022-10-11T06:29:44.516Z,9.680974
2022-10-11T06:30:44.514Z,9.681072
2022-10-11T06:31:44.526Z,9.681089
2022-10-11T06:32:44.500Z,9.681231
2022-10-11T06:33:44.528Z,9.680656
2022-10-11T06:34:44.538Z,9.681306
2022-10-11T06:35:44.500Z,9.681109
2022-10-11T06:36:44.486Z,9.681194
2022-10-11T06:37:44.474Z,9.680704
2022-10-11T06:38:45.342Z,9.680910
2022-10-11T06:39:44.453Z,9.680575
2022-10-11T06:40:44.442Z,9.680824
2022-10-11T06:41:44.433Z,9.680412
2022-10-11T06:42:44.423Z,9.680600
2022-10-11T06:43:44.425Z,9.681159
2022-10-11T06:44:44.427Z,9.681208
2022-10-11T06:45:44.405Z,9.681235
2022-10-11T06:46:44.403Z,9.680968
2022-10-11T06:47:44.414Z,9.681013
2022-10-11T06:48:44.407Z,9.681220
2022-10-11T06:49:44.385Z,9.680812
2022-10-11T06:51:00.318Z,9.681132
2022-10-11T06:51:45.374Z,9.681181
2022-10-11T06:52:44.367Z,9.680968
2022-10-11T06:53:44.358Z,9.681021
2022-10-11T06:54:45.206Z,9.680989
2022-10-11T06:55:44.338Z,9.681063
2022-10-11T06:56:44.363Z,9.680994
2022-10-11T06:57:44.325Z,9.681294
2022-10-11T06:58:44.321Z,9.681042
2022-10-11T06:59:44.314Z,9.681063
2022-10-11T07:00:44.364Z,9.681072
2022-10-11T07:01:44.308Z,9.681296
2022-10-11T07:02:44.319Z,9.681341
2022-10-11T07:03:44.287Z,9.681453
2022-10-11T07:04:44.284Z,9.681258
2022-10-11T07:05:44.271Z,9.681085
2022-10-11T07:06:44.272Z,9.680798
2022-10-11T07:07:44.289Z,9.681418
2022-10-11T07:08:44.254Z,9.681592
2022-10-11T07:09:44.242Z,9.681668
2022-10-11T07:10:44.237Z,9.681519
2022-10-11T07:11:44.226Z,9.680844
2022-10-11T07:12:44.212Z,9.680814
2022-10-11T07:13:44.228Z,9.680864
2022-10-11T07:14:44.211Z,9.681227
2022-10-11T07:15:44.190Z,9.680922
2022-10-11T07:16:44.202Z,9.681466
2022-10-11T07:17:44.174Z,9.681331
2022-10-11T07:18:44.187Z,9.681302
2022-10-11T07:19:44.165Z,9.680263
2022-10-11T07:20:44.184Z,9.681586
2022-10-11T07:21:44.140Z,9.680830
2022-10-11T07:22:44.149Z,9.681178
2022-10-11T07:23:44.121Z,9.681288
2022-10-11T07:24:44.128Z,9.681326
2022-10-11T07:25:44.145Z,9.681303
2022-10-11T07:26:44.130Z,9.681003
2022-10-11T07:27:44.104Z,9.681171
2022-10-11T07:28:44.144Z,9.680683
2022-10-11T07:29:44.083Z,9.680733
2022-10-11T07:30:44.065Z,9.680956
2022-10-11T07:31:44.068Z,9.680635
2022-10-11T07:32:44.091Z,9.681603
2022-10-11T07:33:44.049Z,9.681500
2022-10-11T07:34:44.037Z,9.681021
2022-10-11T07:35:48.200Z,9.679852
2022-10-11T07:36:44.011Z,9.680167
2022-10-11T07:37:43.999Z,9.680743
2022-10-11T07:38:44.034Z,9.681091
2022-10-11T07:39:43.987Z,9.681160
2022-10-11T07:40:43.976Z,9.681080
2022-10-11T07:41:46.060Z,9.681108
2022-10-11T07:42:43.964Z,9.681229
2022-10-11T07:43:44.001Z,9.681318
2022-10-11T07:44:43.954Z,9.680966
2022-10-11T07:45:43.934Z,9.681133
2022-10-11T07:46:43.924Z,9.680974
2022-10-11T07:47:43.916Z,9.681063
2022-10-11T07:48:43.915Z,9.681192
2022-10-11T07:49:43.925Z,9.681191
2022-10-11T07:50:43.899Z,9.681203
2022-10-11T07:51:43.905Z,9.681081
2022-10-11T07:52:43.885Z,9.680897
2022-10-11T07:53:43.883Z,9.680863
2022-10-11T07:54:43.888Z,9.680857
2022-10-11T07:55:43.859Z,9.680884
2022-10-11T07:56:43.878Z,9.681171
2022-10-11T07:57:43.846Z,9.681106
2022-10-11T07:58:43.842Z,9.681036
2022-10-11T07:59:47.852Z,9.680726
2022-10-11T08:00:43.834Z,9.680745
2022-10-11T08:01:43.826Z,9.680745
2022-10-11T08:02:43.805Z,9.680745
2022-10-11T08:03:43.818Z,9.680745
2022-10-11T08:04:43.786Z,9.681296
2022-10-11T08:05:43.778Z,9.681078
2022-10-11T08:06:43.772Z,9.681003
2022-10-11T08:07:43.792Z,9.680990
2022-10-11T08:08:43.757Z,9.681005
2022-10-11T08:09:43.760Z,9.681005
2022-10-11T08:10:43.747Z,9.681005
2022-10-11T08:11:43.733Z,9.681005
2022-10-11T08:12:43.724Z,9.681005
2022-10-11T08:13:43.740Z,9.681082
2022-10-11T08:14:43.732Z,9.681042
2022-10-11T08:15:43.704Z,9.681251
2022-10-11T08:16:43.694Z,9.680957
2022-10-11T08:17:43.756Z,9.680767
2022-10-11T08:18:43.707Z,9.680201
2022-10-11T08:19:43.680Z,9.680915
2022-10-11T08:20:43.667Z,9.680903
2022-10-11T08:21:43.665Z,9.681083
2022-10-11T08:22:43.688Z,9.681161
2022-10-11T08:23:43.652Z,9.681178
2022-10-11T08:24:43.661Z,9.681041
2022-10-11T08:25:43.654Z,9.681139
2022-10-11T08:26:43.630Z,9.681142
2022-10-11T08:27:43.626Z,9.681046
2022-10-11T08:28:43.653Z,9.681142
2022-10-11T08:29:43.638Z,9.681450
2022-10-11T08:30:43.609Z,9.681193
2022-10-11T08:31:43.592Z,9.681051
2022-10-11T08:32:43.582Z,9.681066
2022-10-11T08:33:43.588Z,9.680946
2022-10-11T08:34:43.609Z,9.680943
2022-10-11T08:35:43.571Z,9.681140
2022-10-11T08:36:43.592Z,9.681052
2022-10-11T08:37:43.551Z,9.680985
2022-10-11T08:38:43.549Z,9.681149
2022-10-11T08:39:43.573Z,9.681037
2022-10-11T08:40:43.539Z,9.681292
2022-10-11T08:41:43.549Z,9.681109
2022-10-11T08:42:43.561Z,9.681021
2022-10-11T08:43:43.535Z,9.681027
2022-10-11T08:45:09.366Z,9.680897
2022-10-11T08:45:44.491Z,9.680895
2022-10-11T08:46:43.489Z,9.681255
2022-10-11T08:47:43.497Z,9.681020
2022-10-11T08:48:43.503Z,9.681183
2022-10-11T08:49:43.469Z,9.681223
2022-10-11T08:50:43.454Z,9.680831
2022-10-11T08:51:43.445Z,9.680916
2022-10-11T08:52:43.448Z,9.681112
2022-10-11T08:53:43.432Z,9.681093
2022-10-11T08:54:43.441Z,9.680965
2022-10-11T08:55:43.415Z,9.681008
2022-10-11T08:56:43.415Z,9.680876
2022-10-11T08:57:43.413Z,9.680670
2022-10-11T08:58:43.422Z,9.680615
2022-10-11T08:59:43.407Z,9.680798
2022-10-11T09:00:43.384Z,9.681050
2022-10-11T09:01:43.461Z,9.681068
2022-10-11T09:03:06.991Z,9.680719
2022-10-11T09:03:44.376Z,9.681141
2022-10-11T09:04:43.355Z,9.680776
2022-10-11T09:05:43.343Z,9.680745
2022-10-11T09:06:43.332Z,9.680541
2022-10-11T09:07:43.324Z,9.680725
2022-10-11T09:08:43.322Z,9.680448
2022-10-11T09:09:43.331Z,9.680233
2022-10-11T09:10:43.330Z,9.680900
2022-10-11T09:11:43.295Z,9.681321
2022-10-11T09:12:43.296Z,9.681160
2022-10-11T09:13:43.281Z,9.680695
2022-10-11T09:14:43.282Z,9.681062
2022-10-11T09:15:43.300Z,9.680862
2022-10-11T09:16:43.270Z,9.680997
2022-10-11T09:17:43.260Z,9.680834
2022-10-11T09:18:43.279Z,9.680962
2022-10-11T09:19:43.238Z,9.681857
2022-10-11T09:20:43.236Z,9.681277
2022-10-11T09:21:43.247Z,9.681447
2022-10-11T09:22:43.221Z,9.681260
2022-10-11T09:23:43.219Z,9.680877
2022-10-11T09:24:43.235Z,9.680896
2022-10-11T09:25:43.199Z,9.680881
2022-10-11T09:26:43.208Z,9.680799
2022-10-11T09:28:01.799Z,9.681280
2022-10-11T09:28:44.249Z,9.681559
2022-10-11T09:29:43.192Z,9.681523
2022-10-11T09:30:43.195Z,9.681320
2022-10-11T09:31:43.168Z,9.681358
2022-10-11T09:32:43.156Z,9.681316
2022-10-11T09:33:43.138Z,9.681406
2022-10-11T09:34:43.146Z,9.681253
2022-10-11T09:35:43.143Z,9.681469
2022-10-11T09:36:43.170Z,9.681293
2022-10-11T09:37:43.123Z,9.681407
2022-10-11T09:38:43.111Z,9.681240
2022-10-11T09:39:43.104Z,9.681265
2022-10-11T09:40:43.095Z,9.681793
2022-10-11T09:41:43.098Z,9.681417
2022-10-11T09:42:43.109Z,9.681334
2022-10-11T09:43:43.070Z,9.681427
2022-10-11T09:44:43.070Z,9.681551
2022-10-11T09:45:48.257Z,9.681845
2022-10-11T09:46:44.094Z,9.681290
2022-10-11T09:47:43.054Z,9.680977
2022-10-11T09:48:43.057Z,9.681314
2022-10-11T09:49:43.061Z,9.681357
2022-10-11T09:50:43.028Z,9.681055
2022-10-11T09:51:43.030Z,9.680938
2022-10-11T09:52:43.032Z,9.680916
2022-10-11T09:53:43.021Z,9.680725
2022-10-11T09:54:43.047Z,9.680747
2022-10-11T09:55:42.993Z,9.680872
2022-10-11T09:56:42.994Z,9.680978
2022-10-11T09:57:42.972Z,9.680961
2022-10-11T09:58:42.993Z,9.681086
2022-10-11T09:59:42.967Z,9.681145
2022-10-11T10:00:42.975Z,9.681300
2022-10-11T10:01:43.002Z,9.680951
2022-10-11T10:02:42.941Z,9.680941
2022-10-11T10:03:42.936Z,9.680770
2022-10-11T10:04:42.927Z,9.680729
2022-10-11T10:05:42.938Z,9.680989
2022-10-11T10:06:42.931Z,9.680976
2022-10-11T10:07:42.911Z,9.681499
2022-10-11T10:08:42.895Z,9.681432
2022-10-11T10:09:42.912Z,9.681279
2022-10-11T10:10:42.887Z,9.681088
2022-10-11T10:11:42.884Z,9.680947
2022-10-11T10:12:42.879Z,9.681003
2022-10-11T10:13:42.865Z,9.681602
2022-10-11T10:14:42.862Z,9.681392
2022-10-11T10:15:42.893Z,9.681144
2022-10-11T10:16:42.881Z,9.681087
2022-10-11T10:17:42.828Z,9.680960
2022-10-11T10:18:42.826Z,9.681114
2022-10-11T10:19:45.255Z,9.681084
2022-10-11T10:20:42.846Z,9.680823
2022-10-11T10:21:42.823Z,9.680938
2022-10-11T10:22:42.793Z,9.680921
2022-10-11T10:23:42.825Z,9.680697
2022-10-11T10:24:42.789Z,9.681023
2022-10-11T10:25:43.789Z,9.680925
2022-10-11T10:26:42.795Z,9.681154
2022-10-11T10:27:42.760Z,9.681302
2022-10-11T10:28:42.804Z,9.681298
2022-10-11T10:29:42.749Z,9.681104
2022-10-11T10:30:42.747Z,9.680829
2022-10-11T10:32:12.429Z,9.680825
2022-10-11T10:32:48.236Z,9.680937
2022-10-11T10:33:42.715Z,9.680877
2022-10-11T10:34:42.713Z,9.680837
2022-10-11T10:35:42.701Z,9.680921
2022-10-11T10:36:42.705Z,9.680794
2022-10-11T10:37:42.700Z,9.680401
2022-10-11T10:38:42.671Z,9.680789
2022-10-11T10:39:42.666Z,9.681093
2022-10-11T10:40:42.656Z,9.681065
2022-10-11T10:41:42.658Z,9.680906
2022-10-11T10:42:42.645Z,9.680403
2022-10-11T10:43:42.660Z,9.680817
2022-10-11T10:44:42.659Z,9.680713
2022-10-11T10:45:42.630Z,9.681107
2022-10-11T10:46:42.621Z,9.680548
2022-10-11T10:47:42.614Z,9.679429
2022-10-11T10:49:23.163Z,9.679098
2022-10-11T10:49:53.606Z,9.679073
2022-10-11T10:50:43.616Z,9.679073
2022-10-11T10:51:42.588Z,9.679073
2022-10-11T10:52:42.579Z,9.679073
2022-10-11T10:53:42.594Z,9.679073
2022-10-11T10:54:42.566Z,9.679073
2022-10-11T10:55:42.557Z,9.679073
2022-10-11T10:56:42.566Z,9.679073
2022-10-11T10:57:42.573Z,9.679073
2022-10-11T10:58:42.527Z,9.679073
2022-10-11T10:59:42.523Z,9.679073
2022-10-11T11:00:42.516Z,9.679073
2022-10-11T11:01:42.553Z,9.681052
2022-10-11T11:02:42.556Z,9.681067
2022-10-11T11:03:42.514Z,9.681280
2022-10-11T11:04:42.492Z,9.681469
2022-10-11T11:05:42.500Z,9.681584
2022-10-11T11:06:42.474Z,9.681622
2022-10-11T11:07:42.461Z,9.681243
2022-10-11T11:11:53.331Z,9.681173
2022-10-11T11:12:53.349Z,9.680961
2022-10-11T11:13:53.326Z,9.681695
2022-10-11T11:14:53.313Z,9.681333
2022-10-11T11:15:53.319Z,9.681383
2022-10-11T11:16:53.323Z,9.681499
2022-10-11T11:17:53.288Z,9.681724
2022-10-11T11:18:53.283Z,9.681345
2022-10-11T11:19:53.272Z,9.681148
2022-10-11T11:20:53.270Z,9.681025
2022-10-11T11:21:53.255Z,9.680494
2022-10-11T11:22:53.266Z,9.680925
2022-10-11T11:23:53.267Z,9.681859
2022-10-11T11:24:53.247Z,9.681084
2022-10-11T11:25:53.251Z,9.681228
2022-10-11T11:26:53.239Z,9.681174
2022-10-11T11:27:53.230Z,9.681047
2022-10-11T11:28:53.269Z,9.681203
2022-10-11T11:29:55.549Z,9.681014
2022-10-11T11:30:53.203Z,9.680919
2022-10-11T11:31:53.217Z,9.681145
2022-10-11T11:32:53.254Z,9.681193
2022-10-11T11:33:53.175Z,9.681190
2022-10-11T11:34:53.167Z,9.681310
2022-10-11T11:35:53.177Z,9.681021
2022-10-11T11:36:53.148Z,9.681054
2022-10-11T11:38:00.216Z,9.680987
2022-10-11T11:38:54.181Z,9.680902
2022-10-11T11:39:53.137Z,9.680849
2022-10-11T11:40:53.118Z,9.681335
2022-10-11T11:41:53.115Z,9.681034
2022-10-11T11:42:53.098Z,9.681040
2022-10-11T11:43:53.099Z,9.681073
2022-10-11T11:44:53.138Z,9.681161
2022-10-11T11:45:53.083Z,9.681083
2022-10-11T11:46:53.080Z,9.680552
2022-10-11T11:47:53.064Z,9.680946